createdAt,value
2023-03-18T00:00:11.379Z,6.97
2023-03-18T00:02:40.173Z,7.37
2023-03-18T00:05:10.545Z,7.47
2023-03-18T00:07:38.152Z,7.23
2023-03-18T00:10:07.556Z,6.33
2023-03-18T00:12:35.283Z,6.60
2023-03-18T00:15:02.789Z,5.97
2023-03-18T00:17:30.254Z,7.40
2023-03-18T00:19:57.738Z,8.20
2023-03-18T00:22:26.592Z,6.00
2023-03-18T00:24:54.776Z,7.40
2023-03-18T00:27:22.523Z,7.07
2023-03-18T00:29:50.545Z,6.93
2023-03-18T00:32:18.126Z,6.70
2023-03-18T00:34:46.450Z,7.47
2023-03-18T00:37:18.879Z,7.23
2023-03-18T00:39:47.793Z,7.20
2023-03-18T00:42:15.739Z,10.80
2023-03-18T00:44:44.068Z,8.63
2023-03-18T00:47:11.616Z,8.77
2023-03-18T00:49:39.312Z,7.60
2023-03-18T00:52:07.435Z,6.83
2023-03-18T00:54:35.776Z,6.10
2023-03-18T00:57:05.415Z,6.70
2023-03-18T00:59:33.171Z,6.43
2023-03-18T01:02:00.697Z,6.87
2023-03-18T01:04:28.977Z,6.53
2023-03-18T01:06:57.108Z,7.03
2023-03-18T01:09:24.876Z,6.90
2023-03-18T01:11:52.919Z,6.80
2023-03-18T01:14:21.863Z,6.87
2023-03-18T01:16:49.589Z,7.30
2023-03-18T01:19:17.143Z,7.10
2023-03-18T01:21:44.933Z,7.93
2023-03-18T01:24:13.114Z,7.80
2023-03-18T01:26:40.629Z,6.37
2023-03-18T01:29:08.128Z,6.90
2023-03-18T01:31:37.700Z,7.10
2023-03-18T01:34:05.656Z,8.20
2023-03-18T01:36:33.301Z,7.33
2023-03-18T01:39:00.863Z,6.30
2023-03-18T01:41:28.711Z,6.53
2023-03-18T01:43:56.389Z,6.70
2023-03-18T01:46:40.612Z,7.27
2023-03-18T01:49:12.711Z,8.87
2023-03-18T01:51:42.968Z,7.80
2023-03-18T01:54:12.828Z,8.33
2023-03-18T01:56:43.959Z,7.80
2023-03-18T01:59:12.260Z,10.23
2023-03-18T02:01:46.613Z,10.30
2023-03-18T02:06:41.143Z,8.57
2023-03-18T02:09:09.345Z,7.53
2023-03-18T02:11:39.668Z,8.03
2023-03-18T02:14:09.603Z,7.87
2023-03-18T02:16:47.346Z,7.60
2023-03-18T02:19:27.380Z,8.40
2023-03-18T02:22:02.082Z,8.10
2023-03-18T02:24:39.170Z,8.53
2023-03-18T02:27:16.975Z,8.40
2023-03-18T02:29:45.362Z,7.87
2023-03-18T02:32:14.824Z,7.77
2023-03-18T02:34:43.912Z,7.23
2023-03-18T02:37:11.449Z,8.57
2023-03-18T02:39:39.081Z,7.33
2023-03-18T02:42:07.051Z,7.57
2023-03-18T02:44:41.211Z,6.93
2023-03-18T02:47:12.262Z,7.23
2023-03-18T02:49:39.742Z,7.63
2023-03-18T02:52:07.580Z,10.93
2023-03-18T02:54:35.042Z,12.13
2023-03-18T02:57:02.873Z,12.50
2023-03-18T02:59:32.325Z,11.93
2023-03-18T03:02:02.051Z,12.17
2023-03-18T03:04:30.511Z,10.37
2023-03-18T03:07:01.404Z,10.63
2023-03-18T03:09:28.923Z,8.93
2023-03-18T03:11:56.392Z,9.37
2023-03-18T03:14:23.921Z,9.03
2023-03-18T03:16:51.833Z,9.17
2023-03-18T03:19:20.680Z,11.57
2023-03-18T03:21:48.395Z,8.97
2023-03-18T03:24:16.323Z,9.10
2023-03-18T03:26:43.801Z,8.60
2023-03-18T03:29:12.561Z,8.90
2023-03-18T03:31:40.483Z,9.10
2023-03-18T03:34:08.295Z,8.63
2023-03-18T03:36:37.210Z,9.07
2023-03-18T03:39:06.095Z,7.57
2023-03-18T03:41:33.916Z,8.63
2023-03-18T03:44:01.394Z,7.43
2023-03-18T03:46:28.892Z,7.93
2023-03-18T03:48:56.355Z,8.20
2023-03-18T03:51:23.925Z,7.90
2023-03-18T03:53:52.749Z,8.07
2023-03-18T03:56:20.327Z,7.53
2023-03-18T03:58:47.868Z,7.70
2023-03-18T04:01:15.419Z,7.23
2023-03-18T04:03:42.894Z,8.07
2023-03-18T04:06:11.103Z,8.07
2023-03-18T04:08:38.601Z,7.97
2023-03-18T04:11:07.515Z,8.40
2023-03-18T04:13:34.987Z,7.60
2023-03-18T04:16:02.497Z,7.73
2023-03-18T04:18:29.949Z,8.33
2023-03-18T04:20:57.509Z,8.10
2023-03-18T04:23:25.627Z,8.80
2023-03-18T04:25:53.365Z,9.83
2023-03-18T04:28:22.184Z,10.57
2023-03-18T04:30:50.513Z,10.63
2023-03-18T04:33:18.033Z,10.23
2023-03-18T04:35:45.555Z,9.80
2023-03-18T04:38:13.121Z,10.70
2023-03-18T04:40:40.865Z,8.77
2023-03-18T04:43:09.921Z,8.87
2023-03-18T04:45:38.825Z,8.33
2023-03-18T04:48:06.828Z,7.83
2023-03-18T04:50:34.361Z,8.50
2023-03-18T04:53:01.870Z,7.53
2023-03-18T04:55:29.442Z,8.13
2023-03-18T04:57:56.954Z,8.03
2023-03-18T05:00:24.834Z,7.93
2023-03-18T05:02:53.651Z,8.17
2023-03-18T05:05:21.212Z,8.60
2023-03-18T05:07:48.700Z,8.13
2023-03-18T05:10:16.507Z,8.40
2023-03-18T05:12:44.162Z,7.53
2023-03-18T05:15:13.071Z,7.27
2023-03-18T05:17:41.262Z,7.27
2023-03-18T05:20:13.315Z,7.43
2023-03-18T05:22:41.095Z,8.03
2023-03-18T05:25:11.053Z,8.67
2023-03-18T05:27:38.585Z,9.23
2023-03-18T05:30:07.165Z,8.33
2023-03-18T05:32:34.725Z,9.10
2023-03-18T05:35:03.715Z,10.63
2023-03-18T05:37:32.773Z,10.27
2023-03-18T05:40:00.237Z,9.03
2023-03-18T05:42:28.072Z,8.53
2023-03-18T05:44:56.930Z,14.70
2023-03-18T05:47:24.518Z,14.33
2023-03-18T05:49:52.002Z,14.47
2023-03-18T05:52:19.448Z,15.97
2023-03-18T05:54:48.271Z,16.13
2023-03-18T05:57:15.748Z,13.93
2023-03-18T05:59:43.806Z,12.60
2023-03-18T06:02:11.695Z,14.60
2023-03-18T06:04:40.085Z,14.73
2023-03-18T06:07:07.578Z,15.30
2023-03-18T06:09:35.106Z,16.80
2023-03-18T06:12:05.408Z,19.23
2023-03-18T06:14:32.871Z,17.07
2023-03-18T06:17:00.400Z,17.73
2023-03-18T06:19:30.629Z,18.80
2023-03-18T06:21:58.743Z,17.67
2023-03-18T06:24:26.417Z,17.03
2023-03-18T06:26:54.370Z,14.10
2023-03-18T06:29:23.174Z,11.10
2023-03-18T06:31:50.770Z,9.63
2023-03-18T06:34:19.071Z,11.43
2023-03-18T06:36:46.562Z,9.07
2023-03-18T06:39:14.321Z,8.33
2023-03-18T06:41:41.800Z,12.67
2023-03-18T06:44:09.280Z,53.77
2023-03-18T06:46:38.173Z,72.17
2023-03-18T06:49:05.674Z,60.37
2023-03-18T06:51:33.559Z,32.07
2023-03-18T06:54:01.465Z,50.10
2023-03-18T06:56:28.919Z,53.13
2023-03-18T06:58:56.367Z,43.63
2023-03-18T07:01:23.826Z,23.53
2023-03-18T07:03:52.695Z,6.80
2023-03-18T07:06:20.172Z,6.23
2023-03-18T07:08:47.606Z,6.03
2023-03-18T07:11:15.120Z,6.70
2023-03-18T07:13:42.570Z,5.83
2023-03-18T07:16:10.643Z,7.03
2023-03-18T07:18:38.562Z,6.35
2023-03-18T07:21:07.763Z,10.02
2023-03-18T07:23:35.237Z,11.40
2023-03-18T07:26:02.897Z,8.00
2023-03-18T07:28:30.376Z,13.65
2023-03-18T07:30:57.916Z,31.67
2023-03-18T07:33:25.853Z,43.25
2023-03-18T07:35:53.350Z,35.90
2023-03-18T07:38:22.166Z,11.50
2023-03-18T07:40:49.613Z,6.65
2023-03-18T07:43:17.293Z,7.53
2023-03-18T07:45:45.253Z,8.40
2023-03-18T07:48:12.717Z,8.13
2023-03-18T07:50:40.838Z,10.30
2023-03-18T07:53:08.402Z,8.55
2023-03-18T07:55:37.198Z,9.55
2023-03-18T07:58:05.397Z,8.25
2023-03-18T08:00:33.400Z,8.85
2023-03-18T08:03:00.853Z,8.55
2023-03-18T08:05:28.542Z,8.02
2023-03-18T08:07:56.196Z,7.70
2023-03-18T08:10:25.210Z,7.38
2023-03-18T08:12:54.210Z,6.30
2023-03-18T08:15:22.302Z,5.75
2023-03-18T08:17:49.858Z,5.53
2023-03-18T08:20:17.540Z,5.88
2023-03-18T08:22:45.922Z,5.65
2023-03-18T08:25:13.490Z,5.82
2023-03-18T08:27:41.039Z,5.28
2023-03-18T08:30:11.225Z,5.40
2023-03-18T08:32:38.984Z,5.82
2023-03-18T08:35:07.479Z,5.10
2023-03-18T08:37:35.805Z,5.45
2023-03-18T08:40:03.686Z,5.20
2023-03-18T08:42:31.131Z,5.25
2023-03-18T08:44:58.627Z,5.75
2023-03-18T08:47:29.382Z,7.20
2023-03-18T08:49:57.656Z,8.88
2023-03-18T08:52:25.495Z,8.63
2023-03-18T08:54:53.006Z,9.00
2023-03-18T08:57:20.733Z,7.68
2023-03-18T08:59:48.194Z,8.32
2023-03-18T09:02:18.312Z,7.97
2023-03-18T09:04:48.133Z,8.40
2023-03-18T09:07:18.849Z,7.95
2023-03-18T09:09:46.571Z,7.13
2023-03-18T09:12:14.969Z,7.30
2023-03-18T09:14:43.538Z,7.65
2023-03-18T09:17:11.227Z,7.10
2023-03-18T09:19:38.732Z,6.90
2023-03-18T09:22:08.826Z,7.55
2023-03-18T09:24:36.276Z,7.57
2023-03-18T09:27:03.780Z,7.32
2023-03-18T09:29:31.894Z,7.47
2023-03-18T09:32:00.539Z,7.70
2023-03-18T09:34:28.123Z,7.53
2023-03-18T09:36:55.586Z,7.85
2023-03-18T09:39:24.410Z,7.40
2023-03-18T09:42:08.328Z,7.82
2023-03-18T09:44:37.377Z,8.57
2023-03-18T09:47:24.543Z,8.32
2023-03-18T09:50:22.336Z,8.18
2023-03-18T09:52:56.706Z,8.48
2023-03-18T09:55:31.048Z,8.35
2023-03-18T09:58:03.301Z,8.80
2023-03-18T10:00:34.433Z,7.65
2023-03-18T10:03:06.643Z,8.38
2023-03-18T10:05:38.010Z,9.23
2023-03-18T10:08:14.183Z,8.80
2023-03-18T10:10:46.815Z,7.85
2023-03-18T10:13:22.573Z,9.02
2023-03-18T10:15:53.933Z,8.48
2023-03-18T10:18:27.839Z,8.73
2023-03-18T10:21:12.230Z,8.35
2023-03-18T10:23:52.413Z,8.43
2023-03-18T10:26:27.946Z,8.07
2023-03-18T10:29:19.155Z,8.90
2023-03-18T10:32:00.638Z,8.80
2023-03-18T10:34:34.846Z,8.70
2023-03-18T10:37:07.718Z,8.65
2023-03-18T10:39:37.893Z,8.70
2023-03-18T10:42:20.544Z,8.30
2023-03-18T10:44:48.719Z,9.30
2023-03-18T10:47:21.037Z,8.18
2023-03-18T10:49:59.396Z,8.55
2023-03-18T10:52:34.640Z,8.02
2023-03-18T10:55:02.127Z,8.00
2023-03-18T10:57:32.513Z,8.07
2023-03-18T10:59:59.949Z,7.90
2023-03-18T11:02:34.155Z,9.05
2023-03-18T11:05:05.451Z,7.38
2023-03-18T11:07:33.236Z,7.97
2023-03-18T11:10:13.959Z,8.32
2023-03-18T11:12:43.452Z,8.93
2023-03-18T11:15:12.797Z,7.85
2023-03-18T11:17:40.769Z,8.98
2023-03-18T11:20:22.001Z,8.35
2023-03-18T11:22:52.126Z,8.13
2023-03-18T11:25:24.001Z,9.10
2023-03-18T11:27:58.072Z,8.60
2023-03-18T11:30:34.465Z,8.43
2023-03-18T11:33:06.999Z,8.70
2023-03-18T11:35:40.670Z,8.23
2023-03-18T11:38:15.883Z,7.70
2023-03-18T11:40:43.643Z,8.23
2023-03-18T11:43:19.657Z,8.35
2023-03-18T11:45:52.213Z,8.18
2023-03-18T11:48:28.942Z,7.82
2023-03-18T11:51:10.686Z,7.85
2023-03-18T11:53:51.181Z,7.82
2023-03-18T11:56:28.328Z,8.25
2023-03-18T11:59:22.702Z,7.22
2023-03-18T12:02:01.271Z,7.05
2023-03-18T12:04:46.224Z,7.03
2023-03-18T12:07:27.314Z,7.13
2023-03-18T12:10:04.279Z,6.70
2023-03-18T12:12:49.630Z,6.55
2023-03-18T12:15:31.528Z,6.15
2023-03-18T12:18:07.355Z,5.43
2023-03-18T12:20:49.232Z,5.65
2023-03-18T12:23:43.705Z,5.78
2023-03-18T12:26:16.634Z,6.93
2023-03-18T12:29:09.464Z,6.07
2023-03-18T12:31:54.539Z,6.63
2023-03-18T12:34:35.810Z,5.90
2023-03-18T12:37:18.777Z,7.07
2023-03-18T12:40:18.587Z,7.03
2023-03-18T12:43:03.250Z,7.70
2023-03-18T12:45:36.620Z,7.38
2023-03-18T12:48:11.049Z,7.30
2023-03-18T12:50:42.375Z,7.25
2023-03-18T12:53:16.737Z,7.70
2023-03-18T12:55:47.883Z,7.15
2023-03-18T12:58:19.045Z,7.38
2023-03-18T13:00:52.216Z,8.68
2023-03-18T13:03:32.186Z,7.00
2023-03-18T13:06:04.583Z,7.80
2023-03-18T13:08:50.631Z,7.63
2023-03-18T13:11:37.469Z,8.00
2023-03-18T13:14:12.155Z,8.55
2023-03-18T13:16:41.151Z,8.70
2023-03-18T13:19:11.782Z,8.32
2023-03-18T13:21:44.224Z,8.68
2023-03-18T13:24:32.779Z,8.65
2023-03-18T13:27:26.613Z,9.45
2023-03-18T13:30:02.756Z,8.50
2023-03-18T13:32:54.060Z,8.85
2023-03-18T13:35:44.835Z,9.07
2023-03-18T13:38:29.088Z,8.73
2023-03-18T13:41:14.845Z,8.65
2023-03-18T13:43:49.069Z,9.05
2023-03-18T13:46:20.948Z,9.07
2023-03-18T13:48:50.038Z,8.70
2023-03-18T13:51:49.265Z,8.93
2023-03-18T13:54:20.649Z,8.70
2023-03-18T13:56:52.716Z,8.60
2023-03-18T13:59:48.462Z,9.88
2023-03-18T14:02:43.606Z,9.60
2023-03-18T14:05:36.848Z,9.20
2023-03-18T14:08:07.086Z,8.60
2023-03-18T14:10:36.366Z,9.10
2023-03-18T14:13:27.415Z,9.50
2023-03-18T14:15:57.366Z,8.93
2023-03-18T14:18:28.111Z,8.75
2023-03-18T14:21:01.361Z,8.50
2023-03-18T14:23:42.878Z,8.70
2023-03-18T14:26:23.381Z,9.55
2023-03-18T14:28:56.006Z,8.77
2023-03-18T14:31:33.336Z,9.43
2023-03-18T14:34:20.731Z,8.98
2023-03-18T14:37:18.713Z,9.00
2023-03-18T14:39:49.154Z,8.75
2023-03-18T14:42:29.661Z,9.25
2023-03-18T14:45:04.550Z,9.20
2023-03-18T14:47:42.393Z,9.60
2023-03-18T14:50:17.015Z,9.45
2023-03-18T14:52:49.397Z,9.43
2023-03-18T14:55:20.592Z,8.52
2023-03-18T14:57:49.440Z,9.35
2023-03-18T15:00:18.323Z,8.80
2023-03-18T15:02:46.590Z,8.15
2023-03-18T15:05:18.763Z,8.23
2023-03-18T15:07:52.710Z,8.55
2023-03-18T15:10:21.930Z,8.63
2023-03-18T15:13:00.960Z,7.97
2023-03-18T15:15:28.438Z,8.35
2023-03-18T15:17:55.915Z,8.00
2023-03-18T15:20:24.120Z,8.27
2023-03-18T15:22:52.766Z,7.93
2023-03-18T15:25:22.957Z,8.40
2023-03-18T15:27:51.381Z,9.20
2023-03-18T15:30:29.075Z,8.55
2023-03-18T15:33:04.545Z,8.73
2023-03-18T15:35:32.736Z,8.40
2023-03-18T15:38:08.107Z,8.07
2023-03-18T15:40:37.938Z,8.93
2023-03-18T15:43:17.729Z,8.00
2023-03-18T15:45:48.691Z,7.68
2023-03-18T15:48:24.571Z,7.95
2023-03-18T15:50:56.870Z,7.60
2023-03-18T15:53:26.820Z,6.97
2023-03-18T15:55:56.354Z,6.93
2023-03-18T15:58:27.292Z,7.50
2023-03-18T16:00:57.742Z,7.43
2023-03-18T16:03:27.149Z,6.78
2023-03-18T16:05:55.135Z,7.35
2023-03-18T16:08:23.643Z,7.63
2023-03-18T16:10:54.574Z,6.63
2023-03-18T16:13:24.534Z,7.18
2023-03-18T16:15:53.136Z,6.22
2023-03-18T16:18:22.071Z,8.15
2023-03-18T16:20:50.315Z,13.55
2023-03-18T16:23:19.086Z,26.85
2023-03-18T16:25:48.780Z,32.67
2023-03-18T16:28:20.616Z,29.33
2023-03-18T16:30:49.500Z,27.35
2023-03-18T16:33:18.932Z,27.15
2023-03-18T16:35:58.438Z,27.42
2023-03-18T16:38:28.372Z,25.70
2023-03-18T16:40:57.478Z,33.15
2023-03-18T16:43:27.247Z,21.55
2023-03-18T16:45:58.426Z,18.88
2023-03-18T16:48:27.692Z,13.82
2023-03-18T16:50:57.887Z,31.42
2023-03-18T16:53:27.606Z,31.67
2023-03-18T16:55:58.262Z,30.40
2023-03-18T16:58:29.729Z,21.95
2023-03-18T17:00:57.888Z,21.10
2023-03-18T17:03:25.402Z,22.52
2023-03-18T17:05:53.774Z,12.60
2023-03-18T17:08:23.023Z,7.97
2023-03-18T17:10:52.565Z,12.07
2023-03-18T17:13:23.285Z,27.83
2023-03-18T17:15:52.068Z,37.00
2023-03-18T17:18:21.717Z,44.58
2023-03-18T17:20:49.935Z,40.17
2023-03-18T17:23:19.524Z,29.02
2023-03-18T17:25:53.709Z,31.45
2023-03-18T17:28:34.355Z,15.02
2023-03-18T17:31:02.150Z,19.30
2023-03-18T17:33:31.906Z,9.40
2023-03-18T17:36:01.551Z,8.98
2023-03-18T17:38:30.660Z,8.75
2023-03-18T17:41:00.272Z,7.88
2023-03-18T17:43:30.212Z,6.50
2023-03-18T17:45:58.819Z,5.97
2023-03-18T17:48:28.542Z,18.73
2023-03-18T17:50:58.266Z,17.35
2023-03-18T17:53:28.678Z,25.65
2023-03-18T17:55:57.097Z,15.38
2023-03-18T17:58:27.586Z,12.18
2023-03-18T18:00:57.857Z,22.77
2023-03-18T18:03:27.724Z,16.25
2023-03-18T18:05:56.283Z,11.18
2023-03-18T18:08:25.979Z,48.03
2023-03-18T18:10:55.630Z,24.88
2023-03-18T18:13:23.894Z,17.35
2023-03-18T18:15:52.771Z,16.73
2023-03-18T18:18:25.366Z,12.93
2023-03-18T18:20:55.687Z,8.93
2023-03-18T18:23:35.405Z,5.90
2023-03-18T18:26:04.971Z,9.68
2023-03-18T18:28:34.619Z,37.05
2023-03-18T18:31:05.376Z,43.05
2023-03-18T18:33:34.529Z,50.47
2023-03-18T18:36:02.775Z,76.70
2023-03-18T18:38:30.765Z,78.65
2023-03-18T18:41:00.029Z,62.10
2023-03-18T18:43:27.861Z,75.47
2023-03-18T18:45:57.494Z,69.57
2023-03-18T18:48:30.333Z,67.28
2023-03-18T18:50:58.517Z,45.30
2023-03-18T18:53:27.849Z,34.58
2023-03-18T18:55:57.616Z,38.67
2023-03-18T18:58:29.464Z,42.22
2023-03-18T19:00:57.693Z,39.67
2023-03-18T19:03:31.003Z,38.28
2023-03-18T19:05:59.677Z,59.53
2023-03-18T19:08:31.390Z,34.17
2023-03-18T19:11:00.910Z,30.35
2023-03-18T19:13:30.624Z,12.63
2023-03-18T19:16:00.745Z,17.27
2023-03-18T19:18:35.752Z,12.82
2023-03-18T19:21:03.201Z,13.27
2023-03-18T19:23:33.162Z,11.90
2023-03-18T19:26:01.569Z,13.77
2023-03-18T19:28:47.858Z,14.18
2023-03-18T19:31:20.596Z,10.83
2023-03-18T19:33:51.590Z,13.87
2023-03-18T19:36:25.158Z,8.20
2023-03-18T19:38:53.520Z,15.10
2023-03-18T19:41:21.572Z,12.70
2023-03-18T19:43:49.546Z,9.20
2023-03-18T19:46:18.817Z,11.37
2023-03-18T19:48:47.003Z,11.97
2023-03-18T19:51:16.587Z,11.80
2023-03-18T19:53:45.198Z,11.57
2023-03-18T19:56:25.126Z,13.33
2023-03-18T19:58:54.008Z,14.10
2023-03-18T20:01:22.007Z,11.37
2023-03-18T20:03:50.121Z,10.30
2023-03-18T20:06:18.912Z,9.87
2023-03-18T20:08:46.571Z,9.97
2023-03-18T20:11:15.470Z,11.90
2023-03-18T20:13:44.105Z,10.60
2023-03-18T20:16:14.608Z,9.90
2023-03-18T20:18:42.751Z,9.07
2023-03-18T20:21:18.573Z,10.17
2023-03-18T20:23:47.504Z,9.83
2023-03-18T20:26:15.665Z,8.13
2023-03-18T20:28:45.454Z,9.63
2023-03-18T20:31:14.352Z,9.77
2023-03-18T20:33:41.881Z,10.10
2023-03-18T20:36:16.217Z,15.70
2023-03-18T20:38:45.983Z,12.70
2023-03-18T20:41:17.869Z,11.67
2023-03-18T20:43:45.577Z,10.57
2023-03-18T20:46:15.570Z,10.40
2023-03-18T20:48:44.190Z,13.10
2023-03-18T20:51:21.101Z,11.57
2023-03-18T20:53:49.298Z,9.97
2023-03-18T20:56:19.352Z,8.83
2023-03-18T20:58:46.851Z,8.97
2023-03-18T21:01:14.980Z,10.90
2023-03-18T21:03:42.894Z,9.90
2023-03-18T21:06:13.916Z,8.80
2023-03-18T21:08:42.007Z,9.53
2023-03-18T21:11:20.963Z,9.77
2023-03-18T21:13:48.920Z,9.90
2023-03-18T21:16:18.261Z,8.90
2023-03-18T21:18:46.392Z,10.37
2023-03-18T21:21:20.560Z,9.60
2023-03-18T21:23:48.205Z,9.80
2023-03-18T21:26:15.933Z,10.33
2023-03-18T21:28:44.754Z,10.30
2023-03-18T21:31:23.859Z,11.43
2023-03-18T21:33:51.446Z,9.57
2023-03-18T21:36:18.969Z,9.30
2023-03-18T21:38:46.929Z,8.13
2023-03-18T21:41:22.074Z,8.87
2023-03-18T21:43:51.499Z,12.93
2023-03-18T21:46:21.161Z,13.53
2023-03-18T21:48:48.976Z,9.77
2023-03-18T21:51:37.471Z,11.13
2023-03-18T21:54:06.210Z,10.93
2023-03-18T21:56:33.859Z,10.33
2023-03-18T21:59:02.654Z,9.57
2023-03-18T22:01:32.218Z,9.37
2023-03-18T22:03:59.990Z,10.03
2023-03-18T22:06:27.492Z,8.83
2023-03-18T22:08:56.723Z,8.23
2023-03-18T22:11:24.184Z,8.50
2023-03-18T22:13:51.704Z,9.17
2023-03-18T22:16:20.594Z,8.77
2023-03-18T22:18:48.198Z,8.97
2023-03-18T22:21:19.914Z,7.50
2023-03-18T22:23:47.430Z,8.83
2023-03-18T22:26:16.683Z,8.90
2023-03-18T22:28:44.592Z,8.07
2023-03-18T22:31:20.767Z,8.30
2023-03-18T22:33:48.413Z,8.83
2023-03-18T22:36:17.272Z,9.67
2023-03-18T22:38:45.807Z,9.80
2023-03-18T22:41:20.988Z,9.00
2023-03-18T22:43:48.825Z,11.20
2023-03-18T22:46:16.584Z,10.57
2023-03-18T22:48:45.523Z,11.87
2023-03-18T22:51:22.887Z,9.50
2023-03-18T22:53:52.636Z,7.93
2023-03-18T22:56:21.152Z,7.60
2023-03-18T22:58:48.640Z,25.30
2023-03-18T23:01:18.560Z,19.47
2023-03-18T23:03:47.814Z,14.23
2023-03-18T23:06:17.537Z,9.90
2023-03-18T23:08:46.472Z,12.93
2023-03-18T23:11:14.982Z,16.40
2023-03-18T23:13:43.685Z,10.77
2023-03-18T23:16:15.261Z,9.90
2023-03-18T23:18:42.952Z,9.87
2023-03-18T23:21:16.667Z,8.90
2023-03-18T23:23:44.221Z,7.83
2023-03-18T23:26:11.796Z,9.07
2023-03-18T23:28:44.549Z,9.80
2023-03-18T23:31:13.339Z,11.23
2023-03-18T23:33:40.970Z,9.73
2023-03-18T23:36:09.258Z,17.20
2023-03-18T23:38:38.671Z,15.77
2023-03-18T23:41:07.048Z,10.83
2023-03-18T23:43:34.622Z,13.63
2023-03-18T23:46:03.611Z,8.33
2023-03-18T23:48:31.105Z,7.77
2023-03-18T23:50:58.620Z,9.20
2023-03-18T23:53:26.119Z,10.03
2023-03-18T23:55:54.914Z,8.87
2023-03-18T23:58:22.431Z,9.17
